Detroit, Michigan
Traffic Map
Current Weather Conditions
Detroit, Michigan
Overcast
Overcast
-2°
Feels Like: -2°
Wind Chill: -2° Ceiling: 2700
Heat Index: -2° Visibility: 10mi
Dew Point: -4° Wind: 2mph
Humidity: 86% Direction: 90° (E)
Pressure: 30.29in Gusts: 0mph
Raw Report DataCYQG 210800Z 09002KT 10SM OVC027 M02/M04 A3029 RMK SC8 SLP267
Traffic Incident Summary
Active as of:
Severity:
Category:
InformationThere was an issue retrieving the traffic information for this location. Please try a different location or try again shortly.
Advertisements
Track Severe Weather on mobile